Ron Hull — WDD5737 — position and weather

sailwx.info

Track history (hours):
 
Tides and Currents Weather Stations Pressure Air Temp Water Temp Dewpoint Dewpoint Depression Visibility Wind Speed Wind Dir Waves Ship Positions

Ron Hull

Owner: Florida Marine, LLC, Mandeville, LA. More information available from US FCC via Universal Licensing System and Coast Guard Vessel Documentation Center.

Last reported at 2018-Jun-20 07:37 UTC. Time now 2018-Jun-20 09:08 UTC.
Position N 29°36' W 090°58'.

Length 27 m; draft 2.9 m.

Type: Towing. MMSI: 367162840.

Date/timePositionNaut miles runAvg speedWind from/ knotsBaromVisibWave heightAir tempDewpointWater temp
2018-Jun-20 07:37N 29°36' W 090°58'3 5.5
2018-Jun-20 07:09N 29°34' W 090°56'1 6.0
2018-Jun-20 07:00N 29°33' W 090°55'4 5.3
2018-Jun-20 06:18N 29°32' W 090°51'1 3.6
2018-Jun-20 06:00N 29°32' W 090°50'3 5.4
2018-Jun-20 05:29N 29°32' W 090°47'2 4.9
2018-Jun-20 05:00N 29°34' W 090°45'2 3.4
2018-Jun-20 04:30N 29°35' W 090°43'1 2.5
2018-Jun-20 04:00N 29°36' W 090°43'1 2.3
2018-Jun-20 03:30N 29°37' W 090°42'0 0.6
2018-Jun-20 03:00N 29°37' W 090°42'0 0.1
2018-Jun-20 02:30N 29°37' W 090°42'0 0.0
2018-Jun-20 02:00N 29°37' W 090°42'0 0.0
2018-Jun-20 01:30N 29°37' W 090°42'0 0.0
2018-Jun-20 01:00N 29°37' W 090°42'0 0.0
2018-Jun-20 00:29N 29°37' W 090°42'0 0.0
2018-Jun-20 00:00N 29°37' W 090°42'0 0.0
2018-Jun-19 23:30N 29°37' W 090°42'0 0.0
2018-Jun-19 23:00N 29°37' W 090°42'0 0.0
2018-Jun-19 22:30N 29°37' W 090°42'0 0.0
2018-Jun-19 22:00N 29°37' W 090°42'0 0.0
2018-Jun-19 21:30N 29°37' W 090°42'0 0.0
2018-Jun-19 21:00N 29°37' W 090°42'0 0.0
2018-Jun-19 20:30N 29°37' W 090°42'0 0.0
2018-Jun-19 20:00N 29°37' W 090°42'0 0.0
2018-Jun-19 19:30N 29°37' W 090°42'0 0.0
2018-Jun-19 19:00N 29°37' W 090°42'0 0.0
2018-Jun-19 18:30N 29°37' W 090°42'0 0.0
2018-Jun-19 18:00N 29°37' W 090°42'0 0.0
2018-Jun-19 17:30N 29°37' W 090°42'0 0.0
2018-Jun-19 17:00N 29°37' W 090°42'0 0.1
2018-Jun-19 16:30N 29°37' W 090°42'0 0.1
2018-Jun-19 16:00N 29°37' W 090°42'0 0.0
2018-Jun-19 15:30N 29°37' W 090°42'0 0.0
2018-Jun-19 15:00N 29°37' W 090°42'0 0.0
2018-Jun-19 14:30N 29°37' W 090°42'0 0.0
2018-Jun-19 14:00N 29°37' W 090°42'0 0.0
2018-Jun-19 13:30N 29°37' W 090°42'0 0.0
2018-Jun-19 13:00N 29°37' W 090°42'0 0.0
2018-Jun-19 12:30N 29°37' W 090°42'0 0.0
2018-Jun-19 12:00N 29°37' W 090°42'0 0.0
2018-Jun-19 11:30N 29°37' W 090°42'0 0.0
2018-Jun-19 11:00N 29°37' W 090°42'0 0.0
2018-Jun-19 10:30N 29°37' W 090°42'0 0.0
2018-Jun-19 10:00N 29°37' W 090°42'0 0.0
2018-Jun-19 09:30N 29°37' W 090°42'0 0.0
2018-Jun-19 09:00N 29°37' W 090°42'0 0.0
2018-Jun-19 08:30N 29°37' W 090°42'0 0.0
2018-Jun-19 08:00N 29°37' W 090°42'0 0.0
2018-Jun-19 07:30N 29°37' W 090°42'0 0.0
2018-Jun-19 07:00N 29°37' W 090°42'0 0.0
2018-Jun-19 06:30N 29°37' W 090°42'0 0.0
2018-Jun-19 06:00N 29°37' W 090°42'0 0.0
2018-Jun-19 05:30N 29°37' W 090°42'0 0.1
2018-Jun-19 05:00N 29°37' W 090°42'0 0.1
2018-Jun-19 04:30N 29°37' W 090°42'2 3.8
2018-Jun-19 04:00N 29°35' W 090°43'2 3.4
2018-Jun-19 03:30N 29°34' W 090°44'3 6.4
2018-Jun-19 03:00N 29°32' W 090°47'5 7.9
2018-Jun-19 02:22N 29°32' W 090°53'57 4.0
2018-Jun-18 12:10N 29°51' W 091°56'1 7.3
2018-Jun-18 11:59N 29°50' W 091°57'4 7.5
2018-Jun-18 11:30N 29°49' W 092°01'1 2.3
2018-Jun-18 11:00N 29°49' W 092°02'0 0.1
2018-Jun-18 10:19N 29°49' W 092°02'0 0.0
2018-Jun-18 10:00N 29°49' W 092°02'0 0.0
2018-Jun-18 09:30N 29°49' W 092°02'0 0.0
2018-Jun-18 09:00N 29°49' W 092°02'0 0.0
2018-Jun-18 08:30N 29°49' W 092°02'0 0.0
2018-Jun-18 07:59N 29°49' W 092°02'0 0.0
2018-Jun-18 07:30N 29°49' W 092°02'0 0.0
2018-Jun-18 07:00N 29°49' W 092°02'0 0.0
2018-Jun-18 06:29N 29°49' W 092°02'1 1.3
2018-Jun-18 06:00N 29°49' W 092°03'3 6.9
2018-Jun-18 05:30N 29°48' W 092°07'3 6.7
2018-Jun-18 05:00N 29°47' W 092°10'2 4.0
2018-Jun-18 04:30N 29°47' W 092°12'2 3.3
2018-Jun-18 04:00N 29°48' W 092°14'0 0.0
2018-Jun-18 03:30N 29°48' W 092°14'0 0.0
2018-Jun-18 03:00N 29°48' W 092°14'0 0.0
2018-Jun-18 02:30N 29°48' W 092°14'0 0.0
2018-Jun-18 01:59N 29°48' W 092°14'0 0.6
2018-Jun-18 01:30N 29°48' W 092°15'0 0.7
2018-Jun-18 01:00N 29°48' W 092°15'0 0.0
2018-Jun-18 00:30N 29°48' W 092°15'0 0.0
2018-Jun-18 00:00N 29°48' W 092°15'0 0.0
2018-Jun-17 23:29N 29°48' W 092°15'0 0.3
2018-Jun-17 23:00N 29°48' W 092°15'1 1.1
2018-Jun-17 22:30N 29°48' W 092°16'1 1.4
2018-Jun-17 22:00N 29°49' W 092°16'1 1.6
2018-Jun-17 21:30N 29°49' W 092°17'1 1.4
2018-Jun-17 21:00N 29°50' W 092°18'0 0.1
2018-Jun-17 20:29N 29°50' W 092°18'2 3.6
2018-Jun-17 20:00N 29°50' W 092°19'3 5.5
2018-Jun-17 19:27N 29°52' W 092°22'3 6.0
2018-Jun-17 18:55N 29°53' W 092°26'34 6.1
2018-Jun-17 13:20N 29°56' W 093°05'2 4.6
2018-Jun-17 12:58N 29°56' W 093°07'3 6.0
2018-Jun-17 12:30N 29°56' W 093°10'3 6.5
2018-Jun-17 12:00N 29°59' W 093°12'1 2.2
2018-Jun-17 11:30N 29°60' W 093°13'2 3.5
2018-Jun-17 11:00N 30°01' W 093°14'1 3.0
2018-Jun-17 10:30N 30°02' W 093°15'2 4.0
2018-Jun-17 10:00N 30°04' W 093°16'2 3.6
2018-Jun-17 09:30N 30°05' W 093°18'1 1.3
2018-Jun-17 09:00N 30°06' W 093°18'0 0.8
2018-Jun-17 08:30N 30°06' W 093°18'0 0.0
2018-Jun-17 08:00N 30°06' W 093°18'0 0.0
2018-Jun-17 07:30N 30°06' W 093°18'0 0.0
2018-Jun-17 07:00N 30°06' W 093°18'0 0.0
2018-Jun-17 06:30N 30°06' W 093°18'0 0.0
2018-Jun-17 06:00N 30°06' W 093°18'0 0.0
2018-Jun-17 05:30N 30°06' W 093°18'0 0.0
2018-Jun-17 05:00N 30°06' W 093°18'0 0.0
2018-Jun-17 04:30N 30°06' W 093°18'0 0.0
2018-Jun-17 04:00N 30°06' W 093°18'0 0.0
2018-Jun-17 03:30N 30°06' W 093°18'0 0.1
2018-Jun-17 02:59N 30°06' W 093°18'0 0.0
2018-Jun-17 02:30N 30°06' W 093°18'0 0.0
2018-Jun-17 02:00N 30°06' W 093°18'0 0.0
2018-Jun-17 01:30N 30°06' W 093°18'0 0.0
2018-Jun-17 01:00N 30°06' W 093°18'0 0.1
2018-Jun-17 00:30N 30°06' W 093°18'0 0.0
2018-Jun-17 00:00N 30°06' W 093°18'0 0.0
2018-Jun-16 23:30N 30°06' W 093°18'0 0.0
2018-Jun-16 23:00N 30°06' W 093°18'0 0.0
2018-Jun-16 22:30N 30°06' W 093°18'0 0.0
2018-Jun-16 22:00N 30°06' W 093°18'0 0.0
2018-Jun-16 21:30N 30°06' W 093°18'0 0.0
2018-Jun-16 21:00N 30°06' W 093°18'0 0.0
2018-Jun-16 20:30N 30°06' W 093°18'0 0.0
2018-Jun-16 20:00N 30°06' W 093°18'0 0.0
2018-Jun-16 19:30N 30°06' W 093°18'0 0.0
2018-Jun-16 19:00N 30°06' W 093°18'0 0.0
2018-Jun-16 18:29N 30°06' W 093°18'0 0.0
2018-Jun-16 18:00N 30°06' W 093°18'0 0.0
2018-Jun-16 17:29N 30°06' W 093°18'0 0.1
2018-Jun-16 17:00N 30°06' W 093°18'0 0.0
2018-Jun-16 16:30N 30°06' W 093°18'0 0.0
2018-Jun-16 16:00N 30°06' W 093°18'0 0.1
2018-Jun-16 15:30N 30°06' W 093°18'0 0.0
2018-Jun-16 15:00N 30°06' W 093°18'0 0.0
2018-Jun-16 14:29N 30°06' W 093°18'0 0.0
2018-Jun-16 14:00N 30°06' W 093°18'0 0.0
2018-Jun-16 13:30N 30°06' W 093°18'0 0.0
2018-Jun-16 13:00N 30°06' W 093°18'1 1.0
2018-Jun-16 12:30N 30°06' W 093°19'2 3.6
2018-Jun-16 12:00N 30°08' W 093°20'1 1.3
2018-Jun-16 11:30N 30°08' W 093°19'0 0.0
2018-Jun-16 11:00N 30°08' W 093°19'0 0.0
2018-Jun-16 10:30N 30°08' W 093°19'0 0.0
2018-Jun-16 10:00N 30°08' W 093°19'0 0.0
2018-Jun-16 09:30N 30°08' W 093°19'0 0.0
2018-Jun-16 09:00N 30°08' W 093°19'0 0.0
2018-Jun-16 08:30N 30°08' W 093°19'0 0.0
2018-Jun-16 08:00N 30°08' W 093°19'0 0.0
2018-Jun-16 07:31N 30°08' W 093°19'0 0.0
2018-Jun-16 07:00N 30°08' W 093°19'0 0.0
2018-Jun-16 06:30N 30°08' W 093°19'0 0.0
2018-Jun-16 06:00N 30°08' W 093°19'0 0.0
2018-Jun-16 05:30N 30°08' W 093°19'0 0.0
2018-Jun-16 05:00N 30°08' W 093°19'0 0.0
2018-Jun-16 04:30N 30°08' W 093°19'0 0.0
2018-Jun-16 04:00N 30°08' W 093°19'0 0.0
2018-Jun-16 03:30N 30°08' W 093°19'0 0.0
2018-Jun-16 03:00N 30°08' W 093°19'0 0.0
2018-Jun-16 02:30N 30°08' W 093°19'0 0.0
2018-Jun-16 02:00N 30°08' W 093°19'0 0.0
2018-Jun-16 01:30N 30°08' W 093°19'0 0.0
2018-Jun-16 01:00N 30°08' W 093°19'0 0.0
2018-Jun-16 00:29N 30°08' W 093°19'0 0.0
2018-Jun-16 00:00N 30°08' W 093°19'0 0.0
2018-Jun-15 23:30N 30°08' W 093°19'0 0.0
2018-Jun-15 23:00N 30°08' W 093°19'0 0.0
2018-Jun-15 22:29N 30°08' W 093°19'0 0.0
2018-Jun-15 22:00N 30°08' W 093°19'0 0.0
2018-Jun-15 21:30N 30°08' W 093°19'0 0.0
2018-Jun-15 21:00N 30°08' W 093°19'0 0.0
2018-Jun-15 20:30N 30°08' W 093°19'0 0.0
2018-Jun-15 20:00N 30°08' W 093°19'0 0.3
2018-Jun-15 19:30N 30°08' W 093°20'0 0.0
2018-Jun-15 19:00N 30°08' W 093°20'1 1.8
2018-Jun-15 18:30N 30°07' W 093°20'2 3.1
2018-Jun-15 18:00N 30°06' W 093°20'1 2.1
2018-Jun-15 17:30N 30°05' W 093°20'0 0.2
2018-Jun-15 17:00N 30°05' W 093°20'0 0.0
2018-Jun-15 16:30N 30°05' W 093°20'0 0.9
2018-Jun-15 16:00N 30°05' W 093°20'0 0.6
2018-Jun-15 15:30N 30°05' W 093°20'0 0.5
2018-Jun-15 15:00N 30°05' W 093°20'0 0.0
2018-Jun-15 14:30N 30°05' W 093°20'0 0.0
2018-Jun-15 14:00N 30°05' W 093°20'0 0.0
2018-Jun-15 13:30N 30°05' W 093°20'0 0.0
2018-Jun-15 13:00N 30°05' W 093°20'0 0.0
2018-Jun-15 12:30N 30°05' W 093°20'0 0.0
2018-Jun-15 12:00N 30°05' W 093°20'0 0.0
2018-Jun-15 11:29N 30°05' W 093°20'0 0.0
2018-Jun-15 11:00N 30°05' W 093°20'0 0.0
2018-Jun-15 10:29N 30°05' W 093°20'0 0.0
2018-Jun-15 10:00N 30°05' W 093°20'0 0.0
2018-Jun-15 09:30N 30°05' W 093°20'0 0.0
2018-Jun-15 08:59N 30°05' W 093°20'0 0.0
2018-Jun-15 08:30N 30°05' W 093°20'0 0.0
2018-Jun-15 08:00N 30°05' W 093°20'0 0.0
2018-Jun-15 07:29N 30°05' W 093°20'0 0.0
2018-Jun-15 07:00N 30°05' W 093°20'0 0.0
2018-Jun-15 06:30N 30°05' W 093°20'0 0.0
2018-Jun-15 06:00N 30°05' W 093°20'0 0.0
2018-Jun-15 05:29N 30°05' W 093°20'0 0.0
2018-Jun-15 05:00N 30°05' W 093°20'0 0.0
2018-Jun-15 04:30N 30°05' W 093°20'0 0.0
2018-Jun-15 04:00N 30°05' W 093°20'0 0.0
2018-Jun-15 03:30N 30°05' W 093°20'0 0.0
2018-Jun-15 03:00N 30°05' W 093°20'0 0.0
2018-Jun-15 02:31N 30°05' W 093°20'0 0.0
2018-Jun-15 02:00N 30°05' W 093°20'0 0.0
2018-Jun-15 01:30N 30°05' W 093°20'0 0.0
2018-Jun-15 01:00N 30°05' W 093°20'0 0.0
2018-Jun-15 00:30N 30°05' W 093°20'0 0.0
2018-Jun-15 00:00N 30°05' W 093°20'0 0.0
2018-Jun-14 23:30N 30°05' W 093°20'0 0.0
2018-Jun-14 23:00N 30°05' W 093°20'0 0.9
2018-Jun-14 22:30N 30°05' W 093°20'1 1.9
2018-Jun-14 22:00N 30°06' W 093°19'0 0.0
2018-Jun-14 21:30N 30°06' W 093°19'0 0.0
2018-Jun-14 21:00N 30°06' W 093°19'0 0.0
2018-Jun-14 20:30N 30°06' W 093°19'0 0.0
2018-Jun-14 20:00N 30°06' W 093°19'0 0.0
2018-Jun-14 19:30N 30°06' W 093°19'0 0.0
2018-Jun-14 19:00N 30°06' W 093°19'1 2.7
2018-Jun-14 18:30N 30°05' W 093°20'0 0.1
2018-Jun-14 18:00N 30°05' W 093°20'0 0.0
2018-Jun-14 17:30N 30°05' W 093°20'0 0.0
2018-Jun-14 16:59N 30°05' W 093°20'0 0.0
2018-Jun-14 16:30N 30°05' W 093°20'0 0.0
2018-Jun-14 16:00N 30°05' W 093°20'0 0.0
2018-Jun-14 15:30N 30°05' W 093°20'0 0.0
2018-Jun-14 15:00N 30°05' W 093°20'0 0.0
2018-Jun-14 14:30N 30°05' W 093°20'0 0.7
2018-Jun-14 14:00N 30°04' W 093°20'1 2.1
2018-Jun-14 13:30N 30°04' W 093°21'0 0.0
2018-Jun-14 13:00N 30°04' W 093°21'0 0.1
2018-Jun-14 12:30N 30°04' W 093°21'1 2.8
2018-Jun-14 12:00N 30°05' W 093°20'0 0.0
2018-Jun-14 11:30N 30°05' W 093°20'0 0.0
2018-Jun-14 11:00N 30°05' W 093°20'0 0.0
2018-Jun-14 10:30N 30°05' W 093°20'0 0.0
2018-Jun-14 10:00N 30°05' W 093°20'0 0.0
2018-Jun-14 09:30N 30°05' W 093°20'0 0.0
2018-Jun-14 09:00N 30°05' W 093°20'0 0.0
2018-Jun-14 08:29N 30°05' W 093°20'0 0.0
2018-Jun-14 08:00N 30°05' W 093°20'0 0.0
2018-Jun-14 07:30N 30°05' W 093°20'0 0.0
2018-Jun-14 07:00N 30°05' W 093°20'0 0.0
2018-Jun-14 06:30N 30°05' W 093°20'0 0.0
2018-Jun-14 06:00N 30°05' W 093°20'0 0.0
2018-Jun-14 05:30N 30°05' W 093°20'0 0.0
2018-Jun-14 05:00N 30°05' W 093°20'0 0.0
2018-Jun-14 04:30N 30°05' W 093°20'0 0.0
2018-Jun-14 04:00N 30°05' W 093°20'0 0.0
2018-Jun-14 03:30N 30°05' W 093°20'0 0.0
2018-Jun-14 03:00N 30°05' W 093°20'0 0.0
2018-Jun-14 02:30N 30°05' W 093°20'0 0.0
2018-Jun-14 02:00N 30°05' W 093°20'0 0.0
2018-Jun-14 01:30N 30°05' W 093°20'0 0.0
2018-Jun-14 01:00N 30°05' W 093°20'0 0.0
2018-Jun-14 00:29N 30°05' W 093°20'0 0.0
2018-Jun-14 00:00N 30°05' W 093°20'1 2.1
2018-Jun-13 23:30N 30°06' W 093°19'0 0.8
2018-Jun-13 23:00N 30°06' W 093°19'0 0.0
2018-Jun-13 22:30N 30°06' W 093°19'0 0.0
2018-Jun-13 22:00N 30°06' W 093°19'0 0.0
2018-Jun-13 21:30N 30°06' W 093°19'0 0.0
2018-Jun-13 21:01N 30°06' W 093°19'3 5.7
2018-Jun-13 20:30N 30°04' W 093°21'0 0.1
2018-Jun-13 20:00N 30°04' W 093°21'0 0.0
2018-Jun-13 19:30N 30°04' W 093°21'0 0.0
2018-Jun-13 19:00N 30°04' W 093°21'0 0.0
2018-Jun-13 18:30N 30°04' W 093°21'0 0.0
2018-Jun-13 18:00N 30°04' W 093°21'0 0.0
2018-Jun-13 17:30N 30°04' W 093°21'0 0.0
2018-Jun-13 17:01N 30°04' W 093°21'0 0.0
2018-Jun-13 16:30N 30°04' W 093°21'0 0.0
2018-Jun-13 16:00N 30°04' W 093°21'0 0.0
2018-Jun-13 15:30N 30°04' W 093°21'0 0.0
2018-Jun-13 15:00N 30°04' W 093°21'0 0.0
2018-Jun-13 14:30N 30°04' W 093°21'0 0.0
2018-Jun-13 14:00N 30°04' W 093°21'2 3.6
2018-Jun-13 13:30N 30°05' W 093°20'2 3.0
2018-Jun-13 13:00N 30°06' W 093°19'2 3.8
2018-Jun-13 12:30N 30°05' W 093°20'0 0.9
2018-Jun-13 12:00N 30°05' W 093°20'0 0.0
2018-Jun-13 11:30N 30°05' W 093°20'0 0.0
2018-Jun-13 11:00N 30°05' W 093°20'0 0.8
2018-Jun-13 10:30N 30°05' W 093°20'0 0.1
2018-Jun-13 10:00N 30°05' W 093°20'0 0.0
2018-Jun-13 09:29N 30°05' W 093°20'0 0.0
2018-Jun-13 09:00N 30°05' W 093°20'0 0.0
2018-Jun-13 08:30N 30°05' W 093°20'0 0.0
2018-Jun-13 08:00N 30°05' W 093°20'0 0.0
2018-Jun-13 07:30N 30°05' W 093°20'0 0.0
2018-Jun-13 07:00N 30°05' W 093°20'0 0.0
2018-Jun-13 06:30N 30°05' W 093°20'0 0.0
2018-Jun-13 06:00N 30°05' W 093°20'1 2.5
2018-Jun-13 05:30N 30°06' W 093°20'2 4.8
2018-Jun-13 05:00N 30°08' W 093°19'2 5.0
2018-Jun-13 04:30N 30°06' W 093°20'2 3.6
2018-Jun-13 04:00N 30°05' W 093°18'1 2.0
2018-Jun-13 03:30N 30°05' W 093°17'1 1.4
2018-Jun-13 03:00N 30°05' W 093°17'1 1.2
2018-Jun-13 02:30N 30°05' W 093°18'1 2.2
2018-Jun-13 02:00N 30°06' W 093°19'2 3.6
2018-Jun-13 01:30N 30°05' W 093°20'0 0.0
2018-Jun-13 01:00N 30°05' W 093°20'0 0.0
2018-Jun-13 00:30N 30°05' W 093°20'0 0.0
2018-Jun-13 00:00N 30°05' W 093°20'0 0.0
2018-Jun-12 23:30N 30°05' W 093°20'0 0.0
2018-Jun-12 23:00N 30°05' W 093°20'0 0.0
2018-Jun-12 22:30N 30°05' W 093°20'0 0.0
2018-Jun-12 22:00N 30°05' W 093°20'0 0.0
2018-Jun-12 21:30N 30°05' W 093°20'0 0.0
2018-Jun-12 21:00N 30°05' W 093°20'0 0.0
2018-Jun-12 20:30N 30°05' W 093°20'0 0.0
2018-Jun-12 20:00N 30°05' W 093°20'0 0.0
2018-Jun-12 19:30N 30°05' W 093°20'0 0.0
2018-Jun-12 19:00N 30°05' W 093°20'0 0.0
2018-Jun-12 18:30N 30°05' W 093°20'0 0.0
2018-Jun-12 18:00N 30°05' W 093°20'0 0.0
2018-Jun-12 17:30N 30°05' W 093°20'1 2.8
2018-Jun-12 17:00N 30°04' W 093°21'0 0.0
2018-Jun-12 16:30N 30°04' W 093°21'0 0.0
2018-Jun-12 16:00N 30°04' W 093°21'0 0.0
2018-Jun-12 15:30N 30°04' W 093°21'0 0.0
2018-Jun-12 15:00N 30°04' W 093°21'0 0.0
2018-Jun-12 14:30N 30°04' W 093°21'0 0.0
2018-Jun-12 14:00N 30°04' W 093°21'0 0.0
2018-Jun-12 13:30N 30°04' W 093°21'0 0.0
2018-Jun-12 13:00N 30°04' W 093°21'0 0.0
2018-Jun-12 12:30N 30°04' W 093°21'0 0.0
2018-Jun-12 12:00N 30°04' W 093°21'0 0.0
2018-Jun-12 11:30N 30°04' W 093°21'0 0.0
2018-Jun-12 11:00N 30°04' W 093°21'0 0.0
2018-Jun-12 10:30N 30°04' W 093°21'1 2.8
2018-Jun-12 10:00N 30°05' W 093°20'0 0.0
2018-Jun-12 09:30N 30°05' W 093°20'0 0.0
2018-Jun-12 09:00N 30°05' W 093°20'0 0.0
2018-Jun-12 08:30N 30°05' W 093°20'0 0.0
2018-Jun-12 08:00N 30°05' W 093°20'0 0.0
2018-Jun-12 07:30N 30°05' W 093°20'0 0.0
2018-Jun-12 07:00N 30°05' W 093°20'0 0.0
2018-Jun-12 06:30N 30°05' W 093°20'0 0.0
2018-Jun-12 06:00N 30°05' W 093°20'0 0.0
2018-Jun-12 05:30N 30°05' W 093°20'0 0.0
2018-Jun-12 05:00N 30°05' W 093°20'0 0.0
2018-Jun-12 04:31N 30°05' W 093°20'0 0.0
2018-Jun-12 04:00N 30°05' W 093°20'0 0.0
2018-Jun-12 03:30N 30°05' W 093°20'0 0.0
2018-Jun-12 03:00N 30°05' W 093°20'0 0.0
2018-Jun-12 02:30N 30°05' W 093°20'0 0.0
2018-Jun-12 02:00N 30°05' W 093°20'0 0.0
2018-Jun-12 01:30N 30°05' W 093°20'0 0.0
2018-Jun-12 01:00N 30°05' W 093°20'0 0.0
2018-Jun-12 00:30N 30°05' W 093°20'0 0.0
2018-Jun-12 00:00N 30°05' W 093°20'0 0.0
2018-Jun-11 23:30N 30°05' W 093°20'0 0.0
2018-Jun-11 22:59N 30°05' W 093°20'0 0.0
2018-Jun-11 22:30N 30°05' W 093°20'0 0.0
2018-Jun-11 22:00N 30°05' W 093°20'0 0.0
2018-Jun-11 21:30N 30°05' W 093°20'0 0.0
2018-Jun-11 21:00N 30°05' W 093°20'0 0.0
2018-Jun-11 20:30N 30°05' W 093°20'0 0.0
2018-Jun-11 20:01N 30°05' W 093°20'0 0.0
2018-Jun-11 19:30N 30°05' W 093°20'0 0.0
2018-Jun-11 19:00N 30°05' W 093°20'0 0.0
2018-Jun-11 18:30N 30°05' W 093°20'0 0.0
2018-Jun-11 18:00N 30°05' W 093°20'0 0.0
2018-Jun-11 17:30N 30°05' W 093°20'0 0.0
2018-Jun-11 17:00N 30°05' W 093°20'0 0.0
2018-Jun-11 16:30N 30°05' W 093°20'0 0.0
2018-Jun-11 16:00N 30°05' W 093°20'0 0.0
2018-Jun-11 15:30N 30°05' W 093°20'0 0.0
2018-Jun-11 15:00N 30°05' W 093°20'0 0.0
2018-Jun-11 14:29N 30°05' W 093°20'0 0.0
2018-Jun-11 14:00N 30°05' W 093°20'0 0.0
2018-Jun-11 13:30N 30°05' W 093°20'0 0.0
2018-Jun-11 13:01N 30°05' W 093°20'0 0.0
2018-Jun-11 12:30N 30°05' W 093°20'0 0.0
2018-Jun-11 12:00N 30°05' W 093°20'0 0.0
2018-Jun-11 11:30N 30°05' W 093°20'0 0.0
2018-Jun-11 10:59N 30°05' W 093°20'0 0.0
2018-Jun-11 10:30N 30°05' W 093°20'0 0.0
2018-Jun-11 10:01N 30°05' W 093°20'0 0.0
2018-Jun-11 09:30N 30°05' W 093°20'0 0.0
2018-Jun-11 09:00N 30°05' W 093°20'0 0.0
2018-Jun-11 08:30N 30°05' W 093°20'0 0.0
2018-Jun-11 08:00N 30°05' W 093°20'0 0.0
2018-Jun-11 07:30N 30°05' W 093°20'0 0.0
2018-Jun-11 07:00N 30°05' W 093°20'0 0.0
2018-Jun-11 06:30N 30°05' W 093°20'0 0.6
2018-Jun-11 06:00N 30°04' W 093°20'1 1.1
2018-Jun-11 05:30N 30°05' W 093°20'0 0.0
2018-Jun-11 05:00N 30°05' W 093°20'0 0.4
2018-Jun-11 04:30N 30°05' W 093°20'0 0.0
2018-Jun-11 04:00N 30°05' W 093°20'0 0.0
2018-Jun-11 03:30N 30°05' W 093°20'0 0.0
2018-Jun-11 02:59N 30°05' W 093°20'0 0.0
2018-Jun-11 02:30N 30°05' W 093°20'0 0.0
2018-Jun-11 02:00N 30°05' W 093°20'0 0.0
2018-Jun-11 01:30N 30°05' W 093°20'0 0.0
2018-Jun-11 01:00N 30°05' W 093°20'0 0.0
2018-Jun-11 00:30N 30°05' W 093°20'0 0.0
2018-Jun-11 00:00N 30°05' W 093°20'0 0.0
2018-Jun-10 23:30N 30°05' W 093°20'0 0.0
2018-Jun-10 23:00N 30°05' W 093°20'0 0.0
2018-Jun-10 22:30N 30°05' W 093°20'0 0.7
2018-Jun-10 22:00N 30°04' W 093°20'0 0.1
2018-Jun-10 21:30N 30°04' W 093°20'0 0.3
2018-Jun-10 21:00N 30°05' W 093°20'0 0.3
2018-Jun-10 20:30N 30°05' W 093°20'0 0.0
2018-Jun-10 20:00N 30°05' W 093°20'0 0.0
2018-Jun-10 19:30N 30°05' W 093°20'0 0.0
2018-Jun-10 19:00N 30°05' W 093°20'0 0.0
2018-Jun-10 18:30N 30°05' W 093°20'0 0.0
2018-Jun-10 18:00N 30°05' W 093°20'0 0.0
2018-Jun-10 17:30N 30°05' W 093°20'0 0.0
2018-Jun-10 16:59N 30°05' W 093°20'0 0.0
2018-Jun-10 16:30N 30°05' W 093°20'0 0.0
2018-Jun-10 16:00N 30°05' W 093°20'0 0.0
2018-Jun-10 15:30N 30°05' W 093°20'0 0.0
2018-Jun-10 15:00N 30°05' W 093°20'0 0.0
2018-Jun-10 14:30N 30°05' W 093°20'0 0.0
2018-Jun-10 13:30N 30°05' W 093°20'0 0.0
2018-Jun-10 13:00N 30°05' W 093°20'0 0.0
2018-Jun-10 12:30N 30°05' W 093°20'0 0.0
2018-Jun-10 12:00N 30°05' W 093°20'0 0.0
2018-Jun-10 11:30N 30°05' W 093°20'0 0.0
2018-Jun-10 11:00N 30°05' W 093°20'0 0.0
2018-Jun-10 10:30N 30°05' W 093°20'0 0.0
2018-Jun-10 10:00N 30°05' W 093°20'0 0.0
2018-Jun-10 09:30N 30°05' W 093°20'0 0.0
2018-Jun-10 09:00N 30°05' W 093°20'0 0.0
2018-Jun-10 08:30N 30°05' W 093°20'0 0.0
2018-Jun-10 08:00N 30°05' W 093°20'  
Track history (hours):
 
Tides and Currents Weather Stations Pressure Air Temp Water Temp Dewpoint Dewpoint Depression Visibility Wind Speed Wind Dir Waves Ship Positions

Ron Hull

Owner: Florida Marine, LLC, Mandeville, LA. More information available from US FCC via Universal Licensing System and Coast Guard Vessel Documentation Center.

Last reported at 2018-Jun-20 07:37 UTC. Time now 2018-Jun-20 09:08 UTC.
Position N 29°36' W 090°58'.

Length 27 m; draft 2.9 m.

Type: Towing. MMSI: 367162840.

Date/timePositionNaut miles runAvg speedWind from/ knotsBaromVisibWave heightAir tempDewpointWater temp
2018-Jun-20 07:37N 29°36' W 090°58'3 5.5
2018-Jun-20 07:09N 29°34' W 090°56'1 6.0
2018-Jun-20 07:00N 29°33' W 090°55'4 5.3
2018-Jun-20 06:18N 29°32' W 090°51'1 3.6
2018-Jun-20 06:00N 29°32' W 090°50'3 5.4
2018-Jun-20 05:29N 29°32' W 090°47'2 4.9
2018-Jun-20 05:00N 29°34' W 090°45'2 3.4
2018-Jun-20 04:30N 29°35' W 090°43'1 2.5
2018-Jun-20 04:00N 29°36' W 090°43'1 2.3
2018-Jun-20 03:30N 29°37' W 090°42'0 0.6
2018-Jun-20 03:00N 29°37' W 090°42'0 0.1
2018-Jun-20 02:30N 29°37' W 090°42'0 0.0
2018-Jun-20 02:00N 29°37' W 090°42'0 0.0
2018-Jun-20 01:30N 29°37' W 090°42'0 0.0
2018-Jun-20 01:00N 29°37' W 090°42'0 0.0
2018-Jun-20 00:29N 29°37' W 090°42'0 0.0
2018-Jun-20 00:00N 29°37' W 090°42'0 0.0
2018-Jun-19 23:30N 29°37' W 090°42'0 0.0
2018-Jun-19 23:00N 29°37' W 090°42'0 0.0
2018-Jun-19 22:30N 29°37' W 090°42'0 0.0
2018-Jun-19 22:00N 29°37' W 090°42'0 0.0
2018-Jun-19 21:30N 29°37' W 090°42'0 0.0
2018-Jun-19 21:00N 29°37' W 090°42'0 0.0
2018-Jun-19 20:30N 29°37' W 090°42'0 0.0
2018-Jun-19 20:00N 29°37' W 090°42'0 0.0
2018-Jun-19 19:30N 29°37' W 090°42'0 0.0
2018-Jun-19 19:00N 29°37' W 090°42'0 0.0
2018-Jun-19 18:30N 29°37' W 090°42'0 0.0
2018-Jun-19 18:00N 29°37' W 090°42'0 0.0
2018-Jun-19 17:30N 29°37' W 090°42'0 0.0
2018-Jun-19 17:00N 29°37' W 090°42'0 0.1
2018-Jun-19 16:30N 29°37' W 090°42'0 0.1
2018-Jun-19 16:00N 29°37' W 090°42'0 0.0
2018-Jun-19 15:30N 29°37' W 090°42'0 0.0
2018-Jun-19 15:00N 29°37' W 090°42'0 0.0
2018-Jun-19 14:30N 29°37' W 090°42'0 0.0
2018-Jun-19 14:00N 29°37' W 090°42'0 0.0
2018-Jun-19 13:30N 29°37' W 090°42'0 0.0
2018-Jun-19 13:00N 29°37' W 090°42'0 0.0
2018-Jun-19 12:30N 29°37' W 090°42'0 0.0
2018-Jun-19 12:00N 29°37' W 090°42'0 0.0
2018-Jun-19 11:30N 29°37' W 090°42'0 0.0
2018-Jun-19 11:00N 29°37' W 090°42'0 0.0
2018-Jun-19 10:30N 29°37' W 090°42'0 0.0
2018-Jun-19 10:00N 29°37' W 090°42'0 0.0
2018-Jun-19 09:30N 29°37' W 090°42'0 0.0
2018-Jun-19 09:00N 29°37' W 090°42'0 0.0
2018-Jun-19 08:30N 29°37' W 090°42'0 0.0
2018-Jun-19 08:00N 29°37' W 090°42'0 0.0
2018-Jun-19 07:30N 29°37' W 090°42'0 0.0
2018-Jun-19 07:00N 29°37' W 090°42'0 0.0
2018-Jun-19 06:30N 29°37' W 090°42'0 0.0
2018-Jun-19 06:00N 29°37' W 090°42'0 0.0
2018-Jun-19 05:30N 29°37' W 090°42'0 0.1
2018-Jun-19 05:00N 29°37' W 090°42'0 0.1
2018-Jun-19 04:30N 29°37' W 090°42'2 3.8
2018-Jun-19 04:00N 29°35' W 090°43'2 3.4
2018-Jun-19 03:30N 29°34' W 090°44'3 6.4
2018-Jun-19 03:00N 29°32' W 090°47'5 7.9
2018-Jun-19 02:22N 29°32' W 090°53'57 4.0
2018-Jun-18 12:10N 29°51' W 091°56'1 7.3
2018-Jun-18 11:59N 29°50' W 091°57'4 7.5
2018-Jun-18 11:30N 29°49' W 092°01'1 2.3
2018-Jun-18 11:00N 29°49' W 092°02'0 0.1
2018-Jun-18 10:19N 29°49' W 092°02'0 0.0
2018-Jun-18 10:00N 29°49' W 092°02'0 0.0
2018-Jun-18 09:30N 29°49' W 092°02'0 0.0
2018-Jun-18 09:00N 29°49' W 092°02'0 0.0
2018-Jun-18 08:30N 29°49' W 092°02'0 0.0
2018-Jun-18 07:59N 29°49' W 092°02'0 0.0
2018-Jun-18 07:30N 29°49' W 092°02'0 0.0
2018-Jun-18 07:00N 29°49' W 092°02'0 0.0
2018-Jun-18 06:29N 29°49' W 092°02'1 1.3
2018-Jun-18 06:00N 29°49' W 092°03'3 6.9
2018-Jun-18 05:30N 29°48' W 092°07'3 6.7
2018-Jun-18 05:00N 29°47' W 092°10'2 4.0
2018-Jun-18 04:30N 29°47' W 092°12'2 3.3
2018-Jun-18 04:00N 29°48' W 092°14'0 0.0
2018-Jun-18 03:30N 29°48' W 092°14'0 0.0
2018-Jun-18 03:00N 29°48' W 092°14'0 0.0
2018-Jun-18 02:30N 29°48' W 092°14'0 0.0
2018-Jun-18 01:59N 29°48' W 092°14'0 0.6
2018-Jun-18 01:30N 29°48' W 092°15'0 0.7
2018-Jun-18 01:00N 29°48' W 092°15'0 0.0
2018-Jun-18 00:30N 29°48' W 092°15'0 0.0
2018-Jun-18 00:00N 29°48' W 092°15'0 0.0
2018-Jun-17 23:29N 29°48' W 092°15'0 0.3
2018-Jun-17 23:00N 29°48' W 092°15'1 1.1
2018-Jun-17 22:30N 29°48' W 092°16'1 1.4
2018-Jun-17 22:00N 29°49' W 092°16'1 1.6
2018-Jun-17 21:30N 29°49' W 092°17'1 1.4
2018-Jun-17 21:00N 29°50' W 092°18'0 0.1
2018-Jun-17 20:29N 29°50' W 092°18'2 3.6
2018-Jun-17 20:00N 29°50' W 092°19'3 5.5
2018-Jun-17 19:27N 29°52' W 092°22'3 6.0
2018-Jun-17 18:55N 29°53' W 092°26'34 6.1
2018-Jun-17 13:20N 29°56' W 093°05'2 4.6
2018-Jun-17 12:58N 29°56' W 093°07'3 6.0
2018-Jun-17 12:30N 29°56' W 093°10'3 6.5
2018-Jun-17 12:00N 29°59' W 093°12'1 2.2
2018-Jun-17 11:30N 29°60' W 093°13'2 3.5
2018-Jun-17 11:00N 30°01' W 093°14'1 3.0
2018-Jun-17 10:30N 30°02' W 093°15'2 4.0
2018-Jun-17 10:00N 30°04' W 093°16'2 3.6
2018-Jun-17 09:30N 30°05' W 093°18'1 1.3
2018-Jun-17 09:00N 30°06' W 093°18'0 0.8
2018-Jun-17 08:30N 30°06' W 093°18'0 0.0
2018-Jun-17 08:00N 30°06' W 093°18'0 0.0
2018-Jun-17 07:30N 30°06' W 093°18'0 0.0
2018-Jun-17 07:00N 30°06' W 093°18'0 0.0
2018-Jun-17 06:30N 30°06' W 093°18'0 0.0
2018-Jun-17 06:00N 30°06' W 093°18'0 0.0
2018-Jun-17 05:30N 30°06' W 093°18'0 0.0
2018-Jun-17 05:00N 30°06' W 093°18'0 0.0
2018-Jun-17 04:30N 30°06' W 093°18'0 0.0
2018-Jun-17 04:00N 30°06' W 093°18'0 0.0
2018-Jun-17 03:30N 30°06' W 093°18'0 0.1
2018-Jun-17 02:59N 30°06' W 093°18'0 0.0
2018-Jun-17 02:30N 30°06' W 093°18'0 0.0
2018-Jun-17 02:00N 30°06' W 093°18'0 0.0
2018-Jun-17 01:30N 30°06' W 093°18'0 0.0
2018-Jun-17 01:00N 30°06' W 093°18'0 0.1
2018-Jun-17 00:30N 30°06' W 093°18'0 0.0
2018-Jun-17 00:00N 30°06' W 093°18'0 0.0
2018-Jun-16 23:30N 30°06' W 093°18'0 0.0
2018-Jun-16 23:00N 30°06' W 093°18'0 0.0
2018-Jun-16 22:30N 30°06' W 093°18'0 0.0
2018-Jun-16 22:00N 30°06' W 093°18'0 0.0
2018-Jun-16 21:30N 30°06' W 093°18'0 0.0
2018-Jun-16 21:00N 30°06' W 093°18'0 0.0
2018-Jun-16 20:30N 30°06' W 093°18'0 0.0
2018-Jun-16 20:00N 30°06' W 093°18'0 0.0
2018-Jun-16 19:30N 30°06' W 093°18'0 0.0
2018-Jun-16 19:00N 30°06' W 093°18'0 0.0
2018-Jun-16 18:29N 30°06' W 093°18'0 0.0
2018-Jun-16 18:00N 30°06' W 093°18'0 0.0
2018-Jun-16 17:29N 30°06' W 093°18'0 0.1
2018-Jun-16 17:00N 30°06' W 093°18'0 0.0
2018-Jun-16 16:30N 30°06' W 093°18'0 0.0
2018-Jun-16 16:00N 30°06' W 093°18'0 0.1
2018-Jun-16 15:30N 30°06' W 093°18'0 0.0
2018-Jun-16 15:00N 30°06' W 093°18'0 0.0
2018-Jun-16 14:29N 30°06' W 093°18'0 0.0
2018-Jun-16 14:00N 30°06' W 093°18'0 0.0
2018-Jun-16 13:30N 30°06' W 093°18'0 0.0
2018-Jun-16 13:00N 30°06' W 093°18'1 1.0
2018-Jun-16 12:30N 30°06' W 093°19'2 3.6
2018-Jun-16 12:00N 30°08' W 093°20'1 1.3
2018-Jun-16 11:30N 30°08' W 093°19'0 0.0
2018-Jun-16 11:00N 30°08' W 093°19'0 0.0
2018-Jun-16 10:30N 30°08' W 093°19'0 0.0
2018-Jun-16 10:00N 30°08' W 093°19'0 0.0
2018-Jun-16 09:30N 30°08' W 093°19'0 0.0
2018-Jun-16 09:00N 30°08' W 093°19'0 0.0
2018-Jun-16 08:30N 30°08' W 093°19'0 0.0
2018-Jun-16 08:00N 30°08' W 093°19'0 0.0
2018-Jun-16 07:31N 30°08' W 093°19'0 0.0
2018-Jun-16 07:00N 30°08' W 093°19'0 0.0
2018-Jun-16 06:30N 30°08' W 093°19'0 0.0
2018-Jun-16 06:00N 30°08' W 093°19'0 0.0
2018-Jun-16 05:30N 30°08' W 093°19'0 0.0
2018-Jun-16 05:00N 30°08' W 093°19'0 0.0
2018-Jun-16 04:30N 30°08' W 093°19'0 0.0
2018-Jun-16 04:00N 30°08' W 093°19'0 0.0
2018-Jun-16 03:30N 30°08' W 093°19'0 0.0
2018-Jun-16 03:00N 30°08' W 093°19'0 0.0
2018-Jun-16 02:30N 30°08' W 093°19'0 0.0
2018-Jun-16 02:00N 30°08' W 093°19'0 0.0
2018-Jun-16 01:30N 30°08' W 093°19'0 0.0
2018-Jun-16 01:00N 30°08' W 093°19'0 0.0
2018-Jun-16 00:29N 30°08' W 093°19'0 0.0
2018-Jun-16 00:00N 30°08' W 093°19'0 0.0
2018-Jun-15 23:30N 30°08' W 093°19'0 0.0
2018-Jun-15 23:00N 30°08' W 093°19'0 0.0
2018-Jun-15 22:29N 30°08' W 093°19'0 0.0
2018-Jun-15 22:00N 30°08' W 093°19'0 0.0
2018-Jun-15 21:30N 30°08' W 093°19'0 0.0
2018-Jun-15 21:00N 30°08' W 093°19'0 0.0
2018-Jun-15 20:30N 30°08' W 093°19'0 0.0
2018-Jun-15 20:00N 30°08' W 093°19'0 0.3
2018-Jun-15 19:30N 30°08' W 093°20'0 0.0
2018-Jun-15 19:00N 30°08' W 093°20'1 1.8
2018-Jun-15 18:30N 30°07' W 093°20'2 3.1
2018-Jun-15 18:00N 30°06' W 093°20'1 2.1
2018-Jun-15 17:30N 30°05' W 093°20'0 0.2
2018-Jun-15 17:00N 30°05' W 093°20'0 0.0
2018-Jun-15 16:30N 30°05' W 093°20'0 0.9
2018-Jun-15 16:00N 30°05' W 093°20'0 0.6
2018-Jun-15 15:30N 30°05' W 093°20'0 0.5
2018-Jun-15 15:00N 30°05' W 093°20'0 0.0
2018-Jun-15 14:30N 30°05' W 093°20'0 0.0
2018-Jun-15 14:00N 30°05' W 093°20'0 0.0
2018-Jun-15 13:30N 30°05' W 093°20'0 0.0
2018-Jun-15 13:00N 30°05' W 093°20'0 0.0
2018-Jun-15 12:30N 30°05' W 093°20'0 0.0
2018-Jun-15 12:00N 30°05' W 093°20'0 0.0
2018-Jun-15 11:29N 30°05' W 093°20'0 0.0
2018-Jun-15 11:00N 30°05' W 093°20'0 0.0
2018-Jun-15 10:29N 30°05' W 093°20'0 0.0
2018-Jun-15 10:00N 30°05' W 093°20'0 0.0
2018-Jun-15 09:30N 30°05' W 093°20'0 0.0
2018-Jun-15 08:59N 30°05' W 093°20'0 0.0
2018-Jun-15 08:30N 30°05' W 093°20'0 0.0
2018-Jun-15 08:00N 30°05' W 093°20'0 0.0
2018-Jun-15 07:29N 30°05' W 093°20'0 0.0
2018-Jun-15 07:00N 30°05' W 093°20'0 0.0
2018-Jun-15 06:30N 30°05' W 093°20'0 0.0
2018-Jun-15 06:00N 30°05' W 093°20'0 0.0
2018-Jun-15 05:29N 30°05' W 093°20'0 0.0
2018-Jun-15 05:00N 30°05' W 093°20'0 0.0
2018-Jun-15 04:30N 30°05' W 093°20'0 0.0
2018-Jun-15 04:00N 30°05' W 093°20'0 0.0
2018-Jun-15 03:30N 30°05' W 093°20'0 0.0
2018-Jun-15 03:00N 30°05' W 093°20'0 0.0
2018-Jun-15 02:31N 30°05' W 093°20'0 0.0
2018-Jun-15 02:00N 30°05' W 093°20'0 0.0
2018-Jun-15 01:30N 30°05' W 093°20'0 0.0
2018-Jun-15 01:00N 30°05' W 093°20'0 0.0
2018-Jun-15 00:30N 30°05' W 093°20'0 0.0
2018-Jun-15 00:00N 30°05' W 093°20'0 0.0
2018-Jun-14 23:30N 30°05' W 093°20'0 0.0
2018-Jun-14 23:00N 30°05' W 093°20'0 0.9
2018-Jun-14 22:30N 30°05' W 093°20'1 1.9
2018-Jun-14 22:00N 30°06' W 093°19'0 0.0
2018-Jun-14 21:30N 30°06' W 093°19'0 0.0
2018-Jun-14 21:00N 30°06' W 093°19'0 0.0
2018-Jun-14 20:30N 30°06' W 093°19'0 0.0
2018-Jun-14 20:00N 30°06' W 093°19'0 0.0
2018-Jun-14 19:30N 30°06' W 093°19'0 0.0
2018-Jun-14 19:00N 30°06' W 093°19'1 2.7
2018-Jun-14 18:30N 30°05' W 093°20'0 0.1
2018-Jun-14 18:00N 30°05' W 093°20'0 0.0
2018-Jun-14 17:30N 30°05' W 093°20'0 0.0
2018-Jun-14 16:59N 30°05' W 093°20'0 0.0
2018-Jun-14 16:30N 30°05' W 093°20'0 0.0
2018-Jun-14 16:00N 30°05' W 093°20'0 0.0
2018-Jun-14 15:30N 30°05' W 093°20'0 0.0
2018-Jun-14 15:00N 30°05' W 093°20'0 0.0
2018-Jun-14 14:30N 30°05' W 093°20'0 0.7
2018-Jun-14 14:00N 30°04' W 093°20'1 2.1
2018-Jun-14 13:30N 30°04' W 093°21'0 0.0
2018-Jun-14 13:00N 30°04' W 093°21'0 0.1
2018-Jun-14 12:30N 30°04' W 093°21'1 2.8
2018-Jun-14 12:00N 30°05' W 093°20'0 0.0
2018-Jun-14 11:30N 30°05' W 093°20'0 0.0
2018-Jun-14 11:00N 30°05' W 093°20'0 0.0
2018-Jun-14 10:30N 30°05' W 093°20'0 0.0
2018-Jun-14 10:00N 30°05' W 093°20'0 0.0
2018-Jun-14 09:30N 30°05' W 093°20'0 0.0
2018-Jun-14 09:00N 30°05' W 093°20'0 0.0
2018-Jun-14 08:29N 30°05' W 093°20'0 0.0
2018-Jun-14 08:00N 30°05' W 093°20'0 0.0
2018-Jun-14 07:30N 30°05' W 093°20'0 0.0
2018-Jun-14 07:00N 30°05' W 093°20'0 0.0
2018-Jun-14 06:30N 30°05' W 093°20'0 0.0
2018-Jun-14 06:00N 30°05' W 093°20'0 0.0
2018-Jun-14 05:30N 30°05' W 093°20'0 0.0
2018-Jun-14 05:00N 30°05' W 093°20'0 0.0
2018-Jun-14 04:30N 30°05' W 093°20'0 0.0
2018-Jun-14 04:00N 30°05' W 093°20'0 0.0
2018-Jun-14 03:30N 30°05' W 093°20'0 0.0
2018-Jun-14 03:00N 30°05' W 093°20'0 0.0
2018-Jun-14 02:30N 30°05' W 093°20'0 0.0
2018-Jun-14 02:00N 30°05' W 093°20'0 0.0
2018-Jun-14 01:30N 30°05' W 093°20'0 0.0
2018-Jun-14 01:00N 30°05' W 093°20'0 0.0
2018-Jun-14 00:29N 30°05' W 093°20'0 0.0
2018-Jun-14 00:00N 30°05' W 093°20'1 2.1
2018-Jun-13 23:30N 30°06' W 093°19'0 0.8
2018-Jun-13 23:00N 30°06' W 093°19'0 0.0
2018-Jun-13 22:30N 30°06' W 093°19'0 0.0
2018-Jun-13 22:00N 30°06' W 093°19'0 0.0
2018-Jun-13 21:30N 30°06' W 093°19'0 0.0
2018-Jun-13 21:01N 30°06' W 093°19'3 5.7
2018-Jun-13 20:30N 30°04' W 093°21'0 0.1
2018-Jun-13 20:00N 30°04' W 093°21'0 0.0
2018-Jun-13 19:30N 30°04' W 093°21'0 0.0
2018-Jun-13 19:00N 30°04' W 093°21'0 0.0
2018-Jun-13 18:30N 30°04' W 093°21'0 0.0
2018-Jun-13 18:00N 30°04' W 093°21'0 0.0
2018-Jun-13 17:30N 30°04' W 093°21'0 0.0
2018-Jun-13 17:01N 30°04' W 093°21'0 0.0
2018-Jun-13 16:30N 30°04' W 093°21'0 0.0
2018-Jun-13 16:00N 30°04' W 093°21'0 0.0
2018-Jun-13 15:30N 30°04' W 093°21'0 0.0
2018-Jun-13 15:00N 30°04' W 093°21'0 0.0
2018-Jun-13 14:30N 30°04' W 093°21'0 0.0
2018-Jun-13 14:00N 30°04' W 093°21'2 3.6
2018-Jun-13 13:30N 30°05' W 093°20'2 3.0
2018-Jun-13 13:00N 30°06' W 093°19'2 3.8
2018-Jun-13 12:30N 30°05' W 093°20'0 0.9
2018-Jun-13 12:00N 30°05' W 093°20'0 0.0
2018-Jun-13 11:30N 30°05' W 093°20'0 0.0
2018-Jun-13 11:00N 30°05' W 093°20'0 0.8
2018-Jun-13 10:30N 30°05' W 093°20'0 0.1
2018-Jun-13 10:00N 30°05' W 093°20'0 0.0
2018-Jun-13 09:29N 30°05' W 093°20'0 0.0
2018-Jun-13 09:00N 30°05' W 093°20'0 0.0
2018-Jun-13 08:30N 30°05' W 093°20'0 0.0
2018-Jun-13 08:00N 30°05' W 093°20'0 0.0
2018-Jun-13 07:30N 30°05' W 093°20'0 0.0
2018-Jun-13 07:00N 30°05' W 093°20'0 0.0
2018-Jun-13 06:30N 30°05' W 093°20'0 0.0
2018-Jun-13 06:00N 30°05' W 093°20'1 2.5
2018-Jun-13 05:30N 30°06' W 093°20'2 4.8
2018-Jun-13 05:00N 30°08' W 093°19'2 5.0
2018-Jun-13 04:30N 30°06' W 093°20'2 3.6
2018-Jun-13 04:00N 30°05' W 093°18'1 2.0
2018-Jun-13 03:30N 30°05' W 093°17'1 1.4
2018-Jun-13 03:00N 30°05' W 093°17'1 1.2
2018-Jun-13 02:30N 30°05' W 093°18'1 2.2
2018-Jun-13 02:00N 30°06' W 093°19'2 3.6
2018-Jun-13 01:30N 30°05' W 093°20'0 0.0
2018-Jun-13 01:00N 30°05' W 093°20'0 0.0
2018-Jun-13 00:30N 30°05' W 093°20'0 0.0
2018-Jun-13 00:00N 30°05' W 093°20'0 0.0
2018-Jun-12 23:30N 30°05' W 093°20'0 0.0
2018-Jun-12 23:00N 30°05' W 093°20'0 0.0
2018-Jun-12 22:30N 30°05' W 093°20'0 0.0
2018-Jun-12 22:00N 30°05' W 093°20'0 0.0
2018-Jun-12 21:30N 30°05' W 093°20'0 0.0
2018-Jun-12 21:00N 30°05' W 093°20'0 0.0
2018-Jun-12 20:30N 30°05' W 093°20'0 0.0
2018-Jun-12 20:00N 30°05' W 093°20'0 0.0
2018-Jun-12 19:30N 30°05' W 093°20'0 0.0
2018-Jun-12 19:00N 30°05' W 093°20'0 0.0
2018-Jun-12 18:30N 30°05' W 093°20'0 0.0
2018-Jun-12 18:00N 30°05' W 093°20'0 0.0
2018-Jun-12 17:30N 30°05' W 093°20'1 2.8
2018-Jun-12 17:00N 30°04' W 093°21'0 0.0
2018-Jun-12 16:30N 30°04' W 093°21'0 0.0
2018-Jun-12 16:00N 30°04' W 093°21'0 0.0
2018-Jun-12 15:30N 30°04' W 093°21'0 0.0
2018-Jun-12 15:00N 30°04' W 093°21'0 0.0
2018-Jun-12 14:30N 30°04' W 093°21'0 0.0
2018-Jun-12 14:00N 30°04' W 093°21'0 0.0
2018-Jun-12 13:30N 30°04' W 093°21'0 0.0
2018-Jun-12 13:00N 30°04' W 093°21'0 0.0
2018-Jun-12 12:30N 30°04' W 093°21'0 0.0
2018-Jun-12 12:00N 30°04' W 093°21'0 0.0
2018-Jun-12 11:30N 30°04' W 093°21'0 0.0
2018-Jun-12 11:00N 30°04' W 093°21'0 0.0
2018-Jun-12 10:30N 30°04' W 093°21'1 2.8
2018-Jun-12 10:00N 30°05' W 093°20'0 0.0
2018-Jun-12 09:30N 30°05' W 093°20'0 0.0
2018-Jun-12 09:00N 30°05' W 093°20'0 0.0
2018-Jun-12 08:30N 30°05' W 093°20'0 0.0
2018-Jun-12 08:00N 30°05' W 093°20'0 0.0
2018-Jun-12 07:30N 30°05' W 093°20'0 0.0
2018-Jun-12 07:00N 30°05' W 093°20'0 0.0
2018-Jun-12 06:30N 30°05' W 093°20'0 0.0
2018-Jun-12 06:00N 30°05' W 093°20'0 0.0
2018-Jun-12 05:30N 30°05' W 093°20'0 0.0
2018-Jun-12 05:00N 30°05' W 093°20'0 0.0
2018-Jun-12 04:31N 30°05' W 093°20'0 0.0
2018-Jun-12 04:00N 30°05' W 093°20'0 0.0
2018-Jun-12 03:30N 30°05' W 093°20'0 0.0
2018-Jun-12 03:00N 30°05' W 093°20'0 0.0
2018-Jun-12 02:30N 30°05' W 093°20'0 0.0
2018-Jun-12 02:00N 30°05' W 093°20'0 0.0
2018-Jun-12 01:30N 30°05' W 093°20'0 0.0
2018-Jun-12 01:00N 30°05' W 093°20'0 0.0
2018-Jun-12 00:30N 30°05' W 093°20'0 0.0
2018-Jun-12 00:00N 30°05' W 093°20'0 0.0
2018-Jun-11 23:30N 30°05' W 093°20'0 0.0
2018-Jun-11 22:59N 30°05' W 093°20'0 0.0
2018-Jun-11 22:30N 30°05' W 093°20'0 0.0
2018-Jun-11 22:00N 30°05' W 093°20'0 0.0
2018-Jun-11 21:30N 30°05' W 093°20'0 0.0
2018-Jun-11 21:00N 30°05' W 093°20'0 0.0
2018-Jun-11 20:30N 30°05' W 093°20'0 0.0
2018-Jun-11 20:01N 30°05' W 093°20'0 0.0
2018-Jun-11 19:30N 30°05' W 093°20'0 0.0
2018-Jun-11 19:00N 30°05' W 093°20'0 0.0
2018-Jun-11 18:30N 30°05' W 093°20'0 0.0
2018-Jun-11 18:00N 30°05' W 093°20'0 0.0
2018-Jun-11 17:30N 30°05' W 093°20'0 0.0
2018-Jun-11 17:00N 30°05' W 093°20'0 0.0
2018-Jun-11 16:30N 30°05' W 093°20'0 0.0
2018-Jun-11 16:00N 30°05' W 093°20'0 0.0
2018-Jun-11 15:30N 30°05' W 093°20'0 0.0
2018-Jun-11 15:00N 30°05' W 093°20'0 0.0
2018-Jun-11 14:29N 30°05' W 093°20'0 0.0
2018-Jun-11 14:00N 30°05' W 093°20'0 0.0
2018-Jun-11 13:30N 30°05' W 093°20'0 0.0
2018-Jun-11 13:01N 30°05' W 093°20'0 0.0
2018-Jun-11 12:30N 30°05' W 093°20'0 0.0
2018-Jun-11 12:00N 30°05' W 093°20'0 0.0
2018-Jun-11 11:30N 30°05' W 093°20'0 0.0
2018-Jun-11 10:59N 30°05' W 093°20'0 0.0
2018-Jun-11 10:30N 30°05' W 093°20'0 0.0
2018-Jun-11 10:01N 30°05' W 093°20'0 0.0
2018-Jun-11 09:30N 30°05' W 093°20'0 0.0
2018-Jun-11 09:00N 30°05' W 093°20'0 0.0
2018-Jun-11 08:30N 30°05' W 093°20'0 0.0
2018-Jun-11 08:00N 30°05' W 093°20'0 0.0
2018-Jun-11 07:30N 30°05' W 093°20'0 0.0
2018-Jun-11 07:00N 30°05' W 093°20'0 0.0
2018-Jun-11 06:30N 30°05' W 093°20'0 0.6
2018-Jun-11 06:00N 30°04' W 093°20'1 1.1
2018-Jun-11 05:30N 30°05' W 093°20'0 0.0
2018-Jun-11 05:00N 30°05' W 093°20'0 0.4
2018-Jun-11 04:30N 30°05' W 093°20'0 0.0
2018-Jun-11 04:00N 30°05' W 093°20'0 0.0
2018-Jun-11 03:30N 30°05' W 093°20'0 0.0
2018-Jun-11 02:59N 30°05' W 093°20'0 0.0
2018-Jun-11 02:30N 30°05' W 093°20'0 0.0
2018-Jun-11 02:00N 30°05' W 093°20'0 0.0
2018-Jun-11 01:30N 30°05' W 093°20'0 0.0
2018-Jun-11 01:00N 30°05' W 093°20'0 0.0
2018-Jun-11 00:30N 30°05' W 093°20'0 0.0
2018-Jun-11 00:00N 30°05' W 093°20'0 0.0
2018-Jun-10 23:30N 30°05' W 093°20'0 0.0
2018-Jun-10 23:00N 30°05' W 093°20'0 0.0
2018-Jun-10 22:30N 30°05' W 093°20'0 0.7
2018-Jun-10 22:00N 30°04' W 093°20'0 0.1
2018-Jun-10 21:30N 30°04' W 093°20'0 0.3
2018-Jun-10 21:00N 30°05' W 093°20'0 0.3
2018-Jun-10 20:30N 30°05' W 093°20'0 0.0
2018-Jun-10 20:00N 30°05' W 093°20'0 0.0
2018-Jun-10 19:30N 30°05' W 093°20'0 0.0
2018-Jun-10 19:00N 30°05' W 093°20'0 0.0
2018-Jun-10 18:30N 30°05' W 093°20'0 0.0
2018-Jun-10 18:00N 30°05' W 093°20'0 0.0
2018-Jun-10 17:30N 30°05' W 093°20'0 0.0
2018-Jun-10 16:59N 30°05' W 093°20'0 0.0
2018-Jun-10 16:30N 30°05' W 093°20'0 0.0
2018-Jun-10 16:00N 30°05' W 093°20'0 0.0
2018-Jun-10 15:30N 30°05' W 093°20'0 0.0
2018-Jun-10 15:00N 30°05' W 093°20'0 0.0
2018-Jun-10 14:30N 30°05' W 093°20'0 0.0
2018-Jun-10 13:30N 30°05' W 093°20'0 0.0
2018-Jun-10 13:00N 30°05' W 093°20'0 0.0
2018-Jun-10 12:30N 30°05' W 093°20'0 0.0
2018-Jun-10 12:00N 30°05' W 093°20'0 0.0
2018-Jun-10 11:30N 30°05' W 093°20'0 0.0
2018-Jun-10 11:00N 30°05' W 093°20'0 0.0
2018-Jun-10 10:30N 30°05' W 093°20'0 0.0
2018-Jun-10 10:00N 30°05' W 093°20'0 0.0
2018-Jun-10 09:30N 30°05' W 093°20'0 0.0
2018-Jun-10 09:00N 30°05' W 093°20'0 0.0
2018-Jun-10 08:30N 30°05' W 093°20'0 0.0
2018-Jun-10 08:00N 30°05' W 093°20'  

Dump ship's entire track history